LIML/LIN METAR and TAF weather

Enter ICAO airport designator
Station Type Date Time Source
LIML METAR 2019/04/18 22:20 UTC NOAA

LIML 182220Z 06003KT CAVOK 14/07 Q1027 NOSIG


Station Type Date Time Source
LIML Decoded METAR 2019/04/18 22:20 UTC NOAA

Milano / Linate, Italy (LIML) 45-26N 009-17E 103M
Apr 18, 2019 - 06:20 PM EDT / 2019.04.18 2220 UTC
Wind: from the ENE (060 degrees) at 3 MPH (3 KT):0
Visibility: greater than 7 mile(s):0
Temperature: 57 F (14 C)
Dew Point: 44 F (7 C)
Relative Humidity: 62%
Pressure (altimeter): 30.33 in. Hg (1027 hPa)
ob: LIML 182220Z 06003KT CAVOK 14/07 Q1027 NOSIG
cycle: 22

Station Type Date Time Source
LIML TAF 2019/04/18 18:21 UTC NOAA

TAF LIML 181700Z 1818/1918 10006KT CAVOK

Example: see airport list